Sun City, Texas
Current Conditions -  °F | °C
As of 8:53 AM on Wednesday 26 Nov 2014 (Local Time) from KGTU Reporting Station
Clear Clear  
Wind Chill: 55°   Ceiling: Unl
Heat Index: 55°   Visibility: 10mi
Dew Point: 34°   Wind: 10mph
Humidity: 44%   Direction: 220°SW
Pressure: 30.19"   Gusts: 16mph
Location:  30.6575°N, 97.7523°W
Report Text: KGTU 261453Z 22009G14KT 10SM SKC 13/01 A3019
Loading
Personal Weather Stations






























Interactive Weather Map New forecast layout! Learn more

10-Day Weather Forecast

Advertisements
Track Severe Weather on mobile